Portada
METAR-TAF:

METAR-TAF

Aeropuertos :

Aeropuerto de Badajoz

Badajoz, España

latitud: 38-53N, longitud: 006-49W, altitud: 185 m

Observación

El informe se hizo hace 15 minutos, a las 12:00 UTC
Viento 4 kt del norte-noreste
Temperatura 24°C
Humedad 38%
Presión 1015 hPa
Visibilidad 10 km o más
sin nubes por debajo de 1500 m y sin presencia de cumulonimbus.

METAR: LEBZ 261200Z 03004KT CAVOK 24/09 Q1015

Hora: 14:15 (12:15 UTC)

Pronóstico

El informe se hizo hace 4 horas y 15 minutos, a las 08:00 UTC
Pronóstico válido del 26 a las 09 UTC al 27 a las 09 UTC
Viento 8 kt del norte
Visibilidad 10 km o más
Escasas nubes a una altura de 3500 ft

TAF: LEBZ 260800Z 2609/2709 01008KT 9999 FEW035 TX27/2615Z TN12/2706Z

Observaciones y pronósticos meteorológicos de más de 4000 aeropuertos (mensajes METAR y TAF).

Los puntos amarillos y rojos representan las estaciones disponibles.

Ponga el ratón en el punto deseado para ver el nombre de la estación.

Haga clic para ver las observaciones y los pronósticos meteorológicos.

Para cambiar el mapa : haga clic en los botones verdes con una cruz de color negro para hacer un zoom, en el botón verde con un guión para alejar o en las flechas verdes para mapas adyacentes.


METAR-TAF: